createdAt,value
2023-09-08T00:00:54.523Z,9.03
2023-09-08T00:03:26.301Z,8.50
2023-09-08T00:05:57.973Z,8.47
2023-09-08T00:08:29.608Z,8.53
2023-09-08T00:11:02.431Z,8.47
2023-09-08T00:13:34.301Z,8.47
2023-09-08T00:16:06.281Z,8.80
2023-09-08T00:18:38.027Z,9.00
2023-09-08T00:21:09.672Z,9.35
2023-09-08T00:23:41.371Z,8.90
2023-09-08T00:26:13.049Z,9.83
2023-09-08T00:28:44.863Z,8.87
2023-09-08T00:31:16.551Z,8.63
2023-09-08T00:33:48.366Z,8.27
2023-09-08T00:36:20.328Z,8.80
2023-09-08T00:38:52.022Z,9.20
2023-09-08T00:41:24.813Z,9.97
2023-09-08T00:43:56.593Z,8.53
2023-09-08T00:46:28.555Z,9.63
2023-09-08T00:49:01.073Z,9.63
2023-09-08T00:51:32.824Z,9.60
2023-09-08T00:54:05.123Z,8.87
2023-09-08T00:56:38.453Z,9.70
2023-09-08T00:59:10.544Z,9.70
2023-09-08T01:01:42.183Z,9.63
2023-09-08T01:04:13.984Z,9.73
2023-09-08T01:06:46.636Z,8.70
2023-09-08T01:09:19.765Z,9.30
2023-09-08T01:11:52.211Z,9.70
2023-09-08T01:14:23.939Z,10.40
2023-09-08T01:16:55.770Z,9.80
2023-09-08T01:19:27.778Z,9.80
2023-09-08T01:22:22.661Z,10.60
2023-09-08T01:25:15.626Z,9.60
2023-09-08T01:27:50.776Z,11.10
2023-09-08T01:30:25.904Z,9.85
2023-09-08T01:32:57.783Z,10.40
2023-09-08T01:35:29.623Z,9.60
2023-09-08T01:38:01.391Z,9.70
2023-09-08T01:40:33.133Z,9.73
2023-09-08T01:43:05.289Z,8.03
2023-09-08T01:45:37.064Z,9.00
2023-09-08T01:48:08.910Z,9.20
2023-09-08T01:50:40.645Z,9.50
2023-09-08T01:53:12.388Z,9.93
2023-09-08T01:55:44.128Z,9.57
2023-09-08T01:58:15.896Z,9.67
2023-09-08T02:00:53.503Z,9.20
2023-09-08T02:03:25.173Z,9.30
2023-09-08T02:05:56.857Z,9.87
2023-09-08T02:08:28.520Z,9.37
2023-09-08T02:11:00.208Z,9.00
2023-09-08T02:13:31.920Z,9.90
2023-09-08T02:16:03.826Z,9.40
2023-09-08T02:18:35.825Z,9.90
2023-09-08T02:21:07.760Z,8.60
2023-09-08T02:23:39.587Z,8.80
2023-09-08T02:26:11.897Z,9.57
2023-09-08T02:28:43.567Z,9.80
2023-09-08T02:31:15.300Z,9.10
2023-09-08T02:33:47.000Z,9.40
2023-09-08T02:36:18.792Z,9.03
2023-09-08T02:38:50.476Z,9.70
2023-09-08T02:41:22.981Z,9.13
2023-09-08T02:43:54.683Z,8.53
2023-09-08T02:46:26.361Z,9.03
2023-09-08T02:48:58.174Z,8.60
2023-09-08T02:51:29.862Z,8.90
2023-09-08T02:54:01.585Z,7.90
2023-09-08T02:56:33.307Z,10.00
2023-09-08T02:59:05.088Z,9.03
2023-09-08T03:01:36.905Z,9.53
2023-09-08T03:04:09.140Z,9.90
2023-09-08T03:06:40.868Z,8.30
2023-09-08T03:09:12.521Z,9.53
2023-09-08T03:11:45.334Z,8.57
2023-09-08T03:14:17.270Z,8.45
2023-09-08T03:16:48.996Z,9.00
2023-09-08T03:19:21.463Z,9.07
2023-09-08T03:21:53.149Z,8.90
2023-09-08T03:24:25.167Z,8.67
2023-09-08T03:26:57.701Z,10.43
2023-09-08T03:29:29.464Z,7.90
2023-09-08T03:32:01.308Z,9.50
2023-09-08T03:34:33.131Z,10.00
2023-09-08T03:37:04.814Z,8.70
2023-09-08T03:39:36.438Z,9.30
2023-09-08T03:42:08.149Z,8.83
2023-09-08T03:44:39.847Z,9.57
2023-09-08T03:47:11.566Z,8.20
2023-09-08T03:49:43.368Z,9.60
2023-09-08T03:52:15.107Z,9.13
2023-09-08T03:54:47.420Z,10.37
2023-09-08T03:57:19.278Z,10.80
2023-09-08T03:59:50.948Z,10.00
2023-09-08T04:02:22.786Z,10.67
2023-09-08T04:04:55.534Z,10.20
2023-09-08T04:07:27.352Z,9.47
2023-09-08T04:09:59.022Z,9.47
2023-09-08T04:12:30.696Z,9.77
2023-09-08T04:15:02.432Z,10.10
2023-09-08T04:17:34.580Z,9.43
2023-09-08T04:20:07.435Z,9.47
2023-09-08T04:22:39.148Z,8.90
2023-09-08T04:25:11.975Z,9.67
2023-09-08T04:27:45.604Z,9.80
2023-09-08T04:30:18.778Z,10.80
2023-09-08T04:32:50.647Z,10.90
2023-09-08T04:35:22.345Z,12.07
2023-09-08T04:37:54.872Z,10.20
2023-09-08T04:40:26.523Z,11.40
2023-09-08T04:42:58.214Z,10.47
2023-09-08T04:45:29.989Z,9.97
2023-09-08T04:48:01.929Z,9.93
2023-09-08T04:50:34.072Z,11.67
2023-09-08T04:53:05.778Z,10.83
2023-09-08T04:55:37.454Z,11.87
2023-09-08T04:58:09.190Z,10.77
2023-09-08T05:00:43.635Z,10.20
2023-09-08T05:03:15.566Z,10.37
2023-09-08T05:05:47.535Z,9.80
2023-09-08T05:08:19.302Z,10.83
2023-09-08T05:10:51.024Z,9.93
2023-09-08T05:13:31.291Z,10.17
2023-09-08T05:16:12.546Z,9.47
2023-09-08T05:18:44.548Z,10.60
2023-09-08T05:21:16.293Z,9.63
2023-09-08T05:23:48.084Z,11.00
2023-09-08T05:26:19.806Z,9.77
2023-09-08T05:28:51.493Z,11.23
2023-09-08T05:31:23.417Z,10.35
2023-09-08T05:33:55.123Z,11.67
2023-09-08T05:36:26.913Z,11.43
2023-09-08T05:38:59.108Z,10.30
2023-09-08T05:41:30.796Z,12.13
2023-09-08T05:44:02.591Z,11.73
2023-09-08T05:46:34.539Z,10.60
2023-09-08T05:49:06.365Z,11.40
2023-09-08T05:51:38.135Z,11.27
2023-09-08T05:54:09.932Z,12.17
2023-09-08T05:56:41.678Z,11.50
2023-09-08T05:59:13.403Z,11.40
2023-09-08T06:01:45.128Z,12.00
2023-09-08T06:04:17.089Z,11.60
2023-09-08T06:06:48.949Z,11.53
2023-09-08T06:09:20.703Z,11.13
2023-09-08T06:11:52.508Z,11.60
2023-09-08T06:14:24.247Z,12.20
2023-09-08T06:16:55.965Z,11.40
2023-09-08T06:19:27.604Z,12.23
2023-09-08T06:21:59.299Z,11.83
2023-09-08T06:24:31.081Z,11.93
2023-09-08T06:27:03.001Z,12.47
2023-09-08T06:29:34.707Z,13.67
2023-09-08T06:32:07.439Z,12.70
2023-09-08T06:34:39.201Z,11.93
2023-09-08T06:37:11.937Z,13.37
2023-09-08T06:39:43.793Z,12.07
2023-09-08T06:42:15.531Z,12.43
2023-09-08T06:44:47.307Z,12.97
2023-09-08T06:47:19.012Z,12.43
2023-09-08T06:49:50.781Z,12.73
2023-09-08T06:52:22.674Z,11.90
2023-09-08T06:54:54.415Z,12.57
2023-09-08T06:57:26.260Z,12.53
2023-09-08T06:59:57.953Z,13.80
2023-09-08T07:02:29.734Z,13.17
2023-09-08T07:05:07.447Z,13.67
2023-09-08T07:07:39.431Z,13.27
2023-09-08T07:10:11.791Z,13.97
2023-09-08T07:12:44.568Z,13.40
2023-09-08T07:15:16.376Z,12.87
2023-09-08T07:17:48.074Z,13.93
2023-09-08T07:20:19.806Z,12.43
2023-09-08T07:22:51.638Z,12.77
2023-09-08T07:25:23.365Z,13.97
2023-09-08T07:27:55.090Z,12.70
2023-09-08T07:30:27.210Z,13.53
2023-09-08T07:32:59.389Z,12.83
2023-09-08T07:35:31.316Z,13.50
2023-09-08T07:38:03.007Z,13.07
2023-09-08T07:40:35.607Z,13.27
2023-09-08T07:43:07.454Z,12.67
2023-09-08T07:45:41.326Z,13.40
2023-09-08T07:48:13.284Z,13.40
2023-09-08T07:50:45.076Z,12.18
2023-09-08T07:53:16.890Z,13.10
2023-09-08T07:55:48.688Z,13.90
2023-09-08T07:58:20.335Z,14.30
2023-09-08T08:00:51.981Z,13.17
2023-09-08T08:03:23.754Z,14.90
2023-09-08T08:05:57.335Z,13.70
2023-09-08T08:08:29.270Z,12.63
2023-09-08T08:11:01.025Z,13.07
2023-09-08T08:13:32.720Z,12.87
2023-09-08T08:16:04.603Z,12.73
2023-09-08T08:18:36.626Z,14.50
2023-09-08T08:21:08.883Z,12.63
2023-09-08T08:23:40.606Z,12.10
2023-09-08T08:26:12.313Z,13.00
2023-09-08T08:28:44.171Z,13.43
2023-09-08T08:31:15.997Z,12.80
2023-09-08T08:33:47.724Z,12.20
2023-09-08T08:36:19.440Z,11.47
2023-09-08T08:38:51.115Z,12.10
2023-09-08T08:41:22.881Z,12.50
2023-09-08T08:43:55.369Z,12.20
2023-09-08T08:46:28.302Z,12.10
2023-09-08T08:49:03.633Z,12.33
2023-09-08T08:51:36.442Z,12.10
2023-09-08T08:54:08.255Z,12.50
2023-09-08T08:56:40.068Z,12.77
2023-09-08T08:59:12.279Z,11.63
2023-09-08T09:01:44.601Z,13.27
2023-09-08T09:04:17.362Z,12.70
2023-09-08T09:06:49.291Z,13.27
2023-09-08T09:09:21.774Z,13.00
2023-09-08T09:11:53.661Z,11.80
2023-09-08T09:14:26.068Z,11.63
2023-09-08T09:16:57.959Z,11.47
2023-09-08T09:19:31.619Z,11.70
2023-09-08T09:22:04.301Z,10.50
2023-09-08T09:24:45.046Z,11.40
2023-09-08T09:27:17.069Z,10.73
2023-09-08T09:29:50.338Z,10.57
2023-09-08T09:32:25.148Z,10.57
2023-09-08T09:35:02.019Z,11.27
2023-09-08T09:37:33.821Z,8.98
2023-09-08T09:40:08.638Z,10.57
2023-09-08T09:42:41.605Z,9.98
2023-09-08T09:45:13.495Z,10.02
2023-09-08T09:47:46.141Z,9.35
2023-09-08T09:50:29.961Z,9.60
2023-09-08T09:53:04.061Z,9.93
2023-09-08T09:55:39.568Z,10.15
2023-09-08T09:58:12.816Z,10.23
2023-09-08T10:00:49.673Z,9.43
2023-09-08T10:03:22.967Z,11.05
2023-09-08T10:05:55.332Z,11.05
2023-09-08T10:08:29.607Z,9.27
2023-09-08T10:11:04.289Z,14.18
2023-09-08T10:13:43.274Z,10.55
2023-09-08T10:16:20.557Z,12.48
2023-09-08T10:18:53.470Z,9.80
2023-09-08T10:21:28.054Z,9.25
2023-09-08T10:24:16.096Z,10.35
2023-09-08T10:26:57.860Z,9.38
2023-09-08T10:29:32.244Z,10.82
2023-09-08T10:32:05.558Z,9.43
2023-09-08T10:34:39.944Z,9.65
2023-09-08T10:37:26.580Z,9.65
2023-09-08T10:40:21.680Z,9.25
2023-09-08T10:43:10.195Z,9.73
2023-09-08T10:45:44.694Z,9.80
2023-09-08T10:48:17.013Z,9.65
2023-09-08T10:50:48.990Z,9.10
2023-09-08T10:53:20.747Z,9.68
2023-09-08T10:56:10.624Z,10.15
2023-09-08T10:58:51.716Z,9.43
2023-09-08T11:01:27.824Z,9.30
2023-09-08T11:04:01.860Z,11.05
2023-09-08T11:06:33.722Z,8.48
2023-09-08T11:09:09.114Z,8.95
2023-09-08T11:11:41.025Z,9.93
2023-09-08T11:14:13.053Z,9.15
2023-09-08T11:16:44.935Z,9.48
2023-09-08T11:19:16.808Z,8.65
2023-09-08T11:21:48.608Z,9.48
2023-09-08T11:24:20.821Z,9.18
2023-09-08T11:26:52.665Z,8.23
2023-09-08T11:29:24.598Z,9.23
2023-09-08T11:31:56.478Z,9.95
2023-09-08T11:34:28.288Z,8.60
2023-09-08T11:37:00.126Z,10.65
2023-09-08T11:39:31.847Z,8.98
2023-09-08T11:42:04.404Z,8.10
2023-09-08T11:44:37.754Z,9.57
2023-09-08T11:47:11.365Z,10.63
2023-09-08T11:49:45.534Z,10.40
2023-09-08T11:52:17.243Z,9.35
2023-09-08T11:55:04.134Z,10.98
2023-09-08T11:57:38.773Z,9.75
2023-09-08T12:00:15.651Z,10.05
2023-09-08T12:02:47.646Z,10.63
2023-09-08T12:05:26.359Z,9.18
2023-09-08T12:07:59.045Z,9.40
2023-09-08T12:10:30.796Z,9.45
2023-09-08T12:13:02.642Z,9.80
2023-09-08T12:15:35.413Z,8.85
2023-09-08T12:18:16.380Z,9.85
2023-09-08T12:21:03.582Z,11.10
2023-09-08T12:23:35.350Z,10.98
2023-09-08T12:26:07.035Z,10.25
2023-09-08T12:28:39.128Z,10.93
2023-09-08T12:31:11.384Z,11.52
2023-09-08T12:33:44.635Z,10.50
2023-09-08T12:36:19.199Z,9.63
2023-09-08T12:38:54.336Z,12.02
2023-09-08T12:41:26.059Z,10.20
2023-09-08T12:43:57.846Z,10.13
2023-09-08T12:46:31.447Z,9.93
2023-09-08T12:49:03.185Z,11.52
2023-09-08T12:51:34.828Z,11.43
2023-09-08T12:54:06.686Z,11.98
2023-09-08T12:56:38.452Z,11.38
2023-09-08T12:59:10.147Z,12.10
2023-09-08T13:01:42.109Z,11.68
2023-09-08T13:04:13.895Z,11.40
2023-09-08T13:06:46.453Z,11.57
2023-09-08T13:09:18.210Z,11.02
2023-09-08T13:11:49.889Z,11.88
2023-09-08T13:14:21.560Z,12.00
2023-09-08T13:16:53.350Z,11.52
2023-09-08T13:19:25.118Z,10.65
2023-09-08T13:21:56.902Z,12.50
2023-09-08T13:24:28.585Z,12.57
2023-09-08T13:27:00.872Z,12.50
2023-09-08T13:29:32.858Z,11.93
2023-09-08T13:32:05.882Z,13.10
2023-09-08T13:34:39.338Z,11.77
2023-09-08T13:37:11.283Z,11.50
2023-09-08T13:39:43.304Z,12.87
2023-09-08T13:42:16.776Z,13.30
2023-09-08T13:44:48.475Z,12.27
2023-09-08T13:47:20.424Z,12.03
2023-09-08T13:49:54.861Z,12.65
2023-09-08T13:52:28.957Z,11.07
2023-09-08T13:57:44.159Z,12.20
2023-09-08T14:00:24.162Z,11.37
2023-09-08T14:02:58.992Z,13.00
2023-09-08T14:05:35.993Z,13.97
2023-09-08T14:13:21.946Z,12.83
2023-09-08T14:15:55.326Z,13.90
2023-09-08T14:18:27.082Z,15.20
2023-09-08T14:20:58.906Z,16.80
2023-09-08T14:23:30.602Z,11.00
2023-09-08T14:26:02.427Z,11.40
2023-09-08T14:28:34.843Z,11.00
2023-09-08T14:31:06.570Z,10.40
2023-09-08T14:33:38.796Z,12.13
2023-09-08T14:36:10.608Z,11.93
2023-09-08T14:38:42.265Z,11.63
2023-09-08T14:41:14.102Z,11.97
2023-09-08T14:43:45.912Z,10.50
2023-09-08T14:46:17.688Z,10.93
2023-09-08T14:48:50.586Z,11.50
2023-09-08T14:51:22.410Z,11.53
2023-09-08T14:53:54.158Z,11.63
2023-09-08T14:56:25.848Z,11.80
2023-09-08T14:58:58.533Z,11.87
2023-09-08T15:01:30.275Z,10.57
2023-09-08T15:04:02.136Z,10.13
2023-09-08T15:06:33.940Z,11.60
2023-09-08T15:09:06.263Z,11.10
2023-09-08T15:11:39.033Z,11.40
2023-09-08T15:14:11.140Z,10.97
2023-09-08T15:16:43.988Z,9.70
2023-09-08T15:19:15.640Z,10.87
2023-09-08T15:21:48.361Z,11.20
2023-09-08T15:24:20.085Z,11.40
2023-09-08T15:26:52.163Z,10.67
2023-09-08T15:29:24.110Z,9.90
2023-09-08T15:31:55.882Z,11.00
2023-09-08T15:34:27.710Z,9.40
2023-09-08T15:36:59.757Z,10.13
2023-09-08T15:39:31.519Z,13.10
2023-09-08T15:42:03.536Z,10.70
2023-09-08T15:44:35.326Z,10.45
2023-09-08T15:47:06.997Z,10.00
2023-09-08T15:49:38.783Z,10.23
2023-09-08T15:52:16.373Z,10.20
2023-09-08T15:54:48.557Z,9.87
2023-09-08T15:57:20.301Z,9.87
2023-09-08T15:59:51.993Z,10.73
2023-09-08T16:02:23.702Z,9.80
2023-09-08T16:04:57.811Z,10.10
2023-09-08T16:07:30.654Z,9.47
2023-09-08T16:10:02.315Z,9.80
2023-09-08T16:12:35.001Z,10.67
2023-09-08T16:15:07.070Z,9.87
2023-09-08T16:17:38.888Z,10.23
2023-09-08T16:20:11.653Z,9.57
2023-09-08T16:22:43.370Z,9.73
2023-09-08T16:25:15.667Z,10.20
2023-09-08T16:27:49.359Z,10.63
2023-09-08T16:30:21.094Z,9.30
2023-09-08T16:32:52.820Z,10.53
2023-09-08T16:35:27.287Z,11.13
2023-09-08T16:37:59.345Z,17.00
2023-09-08T16:40:30.976Z,17.73
2023-09-08T16:43:05.075Z,17.17
2023-09-08T16:45:37.806Z,12.88
2023-09-08T16:48:09.484Z,10.90
2023-09-08T16:50:41.304Z,12.57
2023-09-08T16:53:13.059Z,10.07
2023-09-08T16:55:44.823Z,10.13
2023-09-08T16:58:16.529Z,9.77
2023-09-08T17:00:48.283Z,10.00
2023-09-08T17:03:20.635Z,10.00
2023-09-08T17:05:57.568Z,9.93
2023-09-08T17:08:31.298Z,9.00
2023-09-08T17:11:07.376Z,9.90
2023-09-08T17:13:39.432Z,9.80
2023-09-08T17:16:11.362Z,10.50
2023-09-08T17:18:43.125Z,10.33
2023-09-08T17:21:15.053Z,10.10
2023-09-08T17:23:46.916Z,10.57
2023-09-08T17:26:20.785Z,10.47
2023-09-08T17:28:52.921Z,10.50
2023-09-08T17:31:25.749Z,10.17
2023-09-08T17:33:57.572Z,9.80
2023-09-08T17:36:29.358Z,10.67
2023-09-08T17:39:01.031Z,10.17
2023-09-08T17:41:32.859Z,9.90
2023-09-08T17:44:04.794Z,11.17
2023-09-08T17:46:40.720Z,11.10
2023-09-08T17:49:12.423Z,10.20
2023-09-08T17:51:44.229Z,11.03
2023-09-08T17:54:17.084Z,10.93
2023-09-08T17:56:48.813Z,11.60
2023-09-08T17:59:20.452Z,10.23
2023-09-08T18:01:52.226Z,10.90
2023-09-08T18:04:24.142Z,10.23
2023-09-08T18:06:56.002Z,11.70
2023-09-08T18:09:28.093Z,10.90
2023-09-08T18:11:59.926Z,11.37
2023-09-08T18:14:31.678Z,10.27
2023-09-08T18:17:04.833Z,11.00
2023-09-08T18:19:37.277Z,10.80
2023-09-08T18:22:09.074Z,10.73
2023-09-08T18:24:40.882Z,12.33
2023-09-08T18:27:12.550Z,10.83
2023-09-08T18:29:48.586Z,10.93
2023-09-08T18:32:20.797Z,11.23
2023-09-08T18:34:54.961Z,10.80
2023-09-08T18:37:26.810Z,10.30
2023-09-08T18:39:58.476Z,11.47
2023-09-08T18:42:30.432Z,11.57
2023-09-08T18:45:02.159Z,10.77
2023-09-08T18:47:33.963Z,10.00
2023-09-08T18:50:06.271Z,10.37
2023-09-08T18:52:37.905Z,10.20
2023-09-08T18:55:09.648Z,10.33
2023-09-08T18:57:41.349Z,9.83
2023-09-08T19:00:13.837Z,11.30
2023-09-08T19:02:45.632Z,10.00
2023-09-08T19:05:17.504Z,10.73
2023-09-08T19:07:49.230Z,11.70
2023-09-08T19:10:21.068Z,10.43
2023-09-08T19:12:54.760Z,11.57
2023-09-08T19:15:26.393Z,11.60
2023-09-08T19:17:58.184Z,10.10
2023-09-08T19:20:30.130Z,9.50
2023-09-08T19:23:01.907Z,9.90
2023-09-08T19:25:39.998Z,10.40
2023-09-08T19:28:12.788Z,9.57
2023-09-08T19:30:49.367Z,9.17
2023-09-08T19:33:21.250Z,9.90
2023-09-08T19:35:53.017Z,10.47
2023-09-08T19:38:24.728Z,10.47
2023-09-08T19:41:04.001Z,10.20
2023-09-08T19:43:35.894Z,10.10
2023-09-08T19:46:08.233Z,10.13
2023-09-08T19:48:39.984Z,10.20
2023-09-08T19:51:12.070Z,10.10
2023-09-08T19:53:43.780Z,9.87
2023-09-08T19:56:16.569Z,10.70
2023-09-08T19:58:51.937Z,9.57
2023-09-08T20:01:23.716Z,10.40
2023-09-08T20:03:55.367Z,9.10
2023-09-08T20:06:27.093Z,9.00
2023-09-08T20:08:59.037Z,9.63
2023-09-08T20:11:31.786Z,8.80
2023-09-08T20:14:03.564Z,11.30
2023-09-08T20:16:35.707Z,11.30
2023-09-08T20:19:07.605Z,11.23
2023-09-08T20:21:39.304Z,10.10
2023-09-08T20:24:11.109Z,10.50
2023-09-08T20:26:42.835Z,9.53
2023-09-08T20:29:15.927Z,9.40
2023-09-08T20:31:47.731Z,10.60
2023-09-08T20:34:19.488Z,9.40
2023-09-08T20:36:51.578Z,9.33
2023-09-08T20:39:23.767Z,9.90
2023-09-08T20:41:55.585Z,10.20
2023-09-08T20:44:28.581Z,14.03
2023-09-08T20:47:00.339Z,11.70
2023-09-08T20:49:32.130Z,11.60
2023-09-08T20:52:04.566Z,15.30
2023-09-08T20:54:36.313Z,12.83
2023-09-08T20:57:08.027Z,14.50
2023-09-08T20:59:40.764Z,14.45
2023-09-08T21:02:12.459Z,12.10
2023-09-08T21:04:44.139Z,12.80
2023-09-08T21:07:15.839Z,12.00
2023-09-08T21:09:47.558Z,10.93
2023-09-08T21:12:19.357Z,11.43
2023-09-08T21:14:51.056Z,9.90
2023-09-08T21:17:22.760Z,11.53
2023-09-08T21:19:54.499Z,12.20
2023-09-08T21:22:26.329Z,13.50
2023-09-08T21:24:57.955Z,13.97
2023-09-08T21:27:29.579Z,13.87
2023-09-08T21:30:01.492Z,12.33
2023-09-08T21:32:34.323Z,12.60
2023-09-08T21:35:07.589Z,12.60
2023-09-08T21:37:40.639Z,13.83
2023-09-08T21:40:12.682Z,14.73
2023-09-08T21:42:44.513Z,14.80
2023-09-08T21:45:16.222Z,13.47
2023-09-08T21:47:48.854Z,11.87
2023-09-08T21:50:21.222Z,11.87
2023-09-08T21:52:53.723Z,11.90
2023-09-08T21:55:25.750Z,11.47
2023-09-08T21:57:57.497Z,11.50
2023-09-08T22:00:32.709Z,12.43
2023-09-08T22:03:05.079Z,14.53
2023-09-08T22:05:38.656Z,14.03
2023-09-08T22:08:10.557Z,15.70
2023-09-08T22:10:42.196Z,19.10
2023-09-08T22:13:13.863Z,18.63
2023-09-08T22:15:46.664Z,17.07
2023-09-08T22:18:18.490Z,16.30
2023-09-08T22:20:56.535Z,15.03
2023-09-08T22:23:30.517Z,14.57
2023-09-08T22:26:03.712Z,13.80
2023-09-08T22:28:37.444Z,21.50
2023-09-08T22:31:09.358Z,14.57
2023-09-08T22:33:41.712Z,12.57
2023-09-08T22:36:21.009Z,12.30
2023-09-08T22:38:52.921Z,12.77
2023-09-08T22:41:25.933Z,12.23
2023-09-08T22:43:57.614Z,13.27
2023-09-08T22:46:29.656Z,11.10
2023-09-08T22:49:02.184Z,11.20
2023-09-08T22:51:34.533Z,10.57
2023-09-08T22:54:06.547Z,12.57
2023-09-08T22:56:38.310Z,12.47
2023-09-08T22:59:10.011Z,11.30
2023-09-08T23:01:41.763Z,11.87
2023-09-08T23:04:13.462Z,11.60
2023-09-08T23:06:45.143Z,10.40
2023-09-08T23:09:16.812Z,12.27
2023-09-08T23:11:48.517Z,11.83
2023-09-08T23:14:20.341Z,11.90
2023-09-08T23:16:52.069Z,12.37
2023-09-08T23:19:25.899Z,12.75
2023-09-08T23:21:57.725Z,13.10
2023-09-08T23:24:30.542Z,13.50
2023-09-08T23:27:02.350Z,12.67
2023-09-08T23:29:34.401Z,12.10
2023-09-08T23:32:06.529Z,13.57
2023-09-08T23:34:39.213Z,11.25
2023-09-08T23:37:10.995Z,11.63
2023-09-08T23:39:42.975Z,12.03
2023-09-08T23:42:14.672Z,11.87
2023-09-08T23:44:46.892Z,12.57
2023-09-08T23:47:18.662Z,12.27
2023-09-08T23:49:50.987Z,12.47
2023-09-08T23:52:22.711Z,12.70
2023-09-08T23:54:54.568Z,11.03
2023-09-08T23:57:26.367Z,11.70
2023-09-08T23:59:58.243Z,11.70
